sensor_id;sensor_type;location;lat;lon;timestamp;P1;durP1;ratioP1;P2;durP2;ratioP2
72569;SDS011;60594;50.204;8.844;2022-07-29T00:00:13;6.05;;;1.42;;
72569;SDS011;60594;50.204;8.844;2022-07-29T00:03:00;3.55;;;1.70;;
72569;SDS011;60594;50.204;8.844;2022-07-29T00:05:26;3.80;;;1.40;;
72569;SDS011;60594;50.204;8.844;2022-07-29T00:07:52;5.38;;;1.70;;
72569;SDS011;60594;50.204;8.844;2022-07-29T00:10:19;5.00;;;1.60;;
72569;SDS011;60594;50.204;8.844;2022-07-29T00:12:45;4.35;;;1.42;;
72569;SDS011;60594;50.204;8.844;2022-07-29T00:15:12;4.05;;;1.70;;
72569;SDS011;60594;50.204;8.844;2022-07-29T00:17:38;4.03;;;1.30;;
72569;SDS011;60594;50.204;8.844;2022-07-29T00:20:05;10.00;;;2.10;;
72569;SDS011;60594;50.204;8.844;2022-07-29T00:22:32;9.20;;;2.67;;
72569;SDS011;60594;50.204;8.844;2022-07-29T00:24:58;6.18;;;2.50;;
72569;SDS011;60594;50.204;8.844;2022-07-29T00:27:24;11.10;;;3.22;;
72569;SDS011;60594;50.204;8.844;2022-07-29T00:29:51;14.27;;;3.50;;
72569;SDS011;60594;50.204;8.844;2022-07-29T00:32:17;6.50;;;2.78;;
72569;SDS011;60594;50.204;8.844;2022-07-29T00:34:43;6.25;;;2.72;;
72569;SDS011;60594;50.204;8.844;2022-07-29T00:37:28;7.20;;;2.60;;
72569;SDS011;60594;50.204;8.844;2022-07-29T00:39:55;6.85;;;2.40;;
72569;SDS011;60594;50.204;8.844;2022-07-29T00:42:21;8.30;;;2.85;;
72569;SDS011;60594;50.204;8.844;2022-07-29T00:44:47;7.47;;;2.72;;
72569;SDS011;60594;50.204;8.844;2022-07-29T00:47:14;6.35;;;3.17;;
72569;SDS011;60594;50.204;8.844;2022-07-29T00:49:40;6.32;;;2.58;;
72569;SDS011;60594;50.204;8.844;2022-07-29T00:52:08;7.72;;;3.00;;
72569;SDS011;60594;50.204;8.844;2022-07-29T00:54:36;8.18;;;3.15;;
72569;SDS011;60594;50.204;8.844;2022-07-29T00:57:04;7.28;;;3.30;;
72569;SDS011;60594;50.204;8.844;2022-07-29T00:59:32;7.78;;;2.88;;
72569;SDS011;60594;50.204;8.844;2022-07-29T01:01:58;7.95;;;3.10;;
72569;SDS011;60594;50.204;8.844;2022-07-29T01:04:24;7.63;;;3.05;;
72569;SDS011;60594;50.204;8.844;2022-07-29T01:06:51;5.45;;;2.95;;
72569;SDS011;60594;50.204;8.844;2022-07-29T01:09:20;5.50;;;3.20;;
72569;SDS011;60594;50.204;8.844;2022-07-29T01:14:15;7.82;;;3.47;;
72569;SDS011;60594;50.204;8.844;2022-07-29T01:16:46;6.32;;;3.22;;
72569;SDS011;60594;50.204;8.844;2022-07-29T01:19:33;6.47;;;2.97;;
72569;SDS011;60594;50.204;8.844;2022-07-29T01:22:19;10.32;;;3.60;;
72569;SDS011;60594;50.204;8.844;2022-07-29T01:30:31;9.13;;;3.85;;
72569;SDS011;60594;50.204;8.844;2022-07-29T01:33:00;6.70;;;3.55;;
72569;SDS011;60594;50.204;8.844;2022-07-29T01:35:34;7.53;;;3.70;;
72569;SDS011;60594;50.204;8.844;2022-07-29T01:38:12;9.88;;;4.15;;
72569;SDS011;60594;50.204;8.844;2022-07-29T01:40:47;5.88;;;3.13;;
72569;SDS011;60594;50.204;8.844;2022-07-29T01:43:20;6.30;;;3.13;;
72569;SDS011;60594;50.204;8.844;2022-07-29T01:45:53;6.00;;;3.08;;
72569;SDS011;60594;50.204;8.844;2022-07-29T01:51:33;6.15;;;3.17;;
72569;SDS011;60594;50.204;8.844;2022-07-29T01:54:13;6.88;;;3.30;;
72569;SDS011;60594;50.204;8.844;2022-07-29T01:56:40;6.20;;;2.95;;
72569;SDS011;60594;50.204;8.844;2022-07-29T01:59:10;6.60;;;2.80;;
72569;SDS011;60594;50.204;8.844;2022-07-29T02:01:37;7.40;;;3.38;;
72569;SDS011;60594;50.204;8.844;2022-07-29T02:04:07;5.65;;;3.70;;
72569;SDS011;60594;50.204;8.844;2022-07-29T02:06:37;8.52;;;3.60;;
72569;SDS011;60594;50.204;8.844;2022-07-29T02:09:06;7.10;;;3.55;;
72569;SDS011;60594;50.204;8.844;2022-07-29T02:11:34;8.38;;;3.90;;
72569;SDS011;60594;50.204;8.844;2022-07-29T02:14:03;6.50;;;3.53;;
72569;SDS011;60594;50.204;8.844;2022-07-29T02:16:30;6.80;;;3.80;;
72569;SDS011;60594;50.204;8.844;2022-07-29T02:19:00;5.30;;;3.17;;
72569;SDS011;60594;50.204;8.844;2022-07-29T02:21:29;6.78;;;3.60;;
72569;SDS011;60594;50.204;8.844;2022-07-29T02:23:59;6.43;;;3.13;;
72569;SDS011;60594;50.204;8.844;2022-07-29T02:26:28;7.45;;;3.20;;
72569;SDS011;60594;50.204;8.844;2022-07-29T02:28:57;6.55;;;3.50;;
72569;SDS011;60594;50.204;8.844;2022-07-29T02:31:26;6.20;;;3.00;;
72569;SDS011;60594;50.204;8.844;2022-07-29T02:33:58;5.60;;;3.25;;
72569;SDS011;60594;50.204;8.844;2022-07-29T02:36:26;6.40;;;2.97;;
72569;SDS011;60594;50.204;8.844;2022-07-29T02:38:54;5.95;;;3.22;;
72569;SDS011;60594;50.204;8.844;2022-07-29T02:41:27;6.20;;;3.35;;
72569;SDS011;60594;50.204;8.844;2022-07-29T02:43:57;5.65;;;2.95;;
72569;SDS011;60594;50.204;8.844;2022-07-29T02:46:32;7.80;;;4.18;;
72569;SDS011;60594;50.204;8.844;2022-07-29T02:49:18;6.88;;;3.13;;
72569;SDS011;60594;50.204;8.844;2022-07-29T02:52:04;7.88;;;3.00;;
72569;SDS011;60594;50.204;8.844;2022-07-29T02:54:38;6.40;;;2.78;;
72569;SDS011;60594;50.204;8.844;2022-07-29T02:57:19;6.88;;;3.35;;
72569;SDS011;60594;50.204;8.844;2022-07-29T02:59:49;6.50;;;3.20;;
72569;SDS011;60594;50.204;8.844;2022-07-29T03:02:18;7.30;;;3.17;;
72569;SDS011;60594;50.204;8.844;2022-07-29T03:07:14;6.35;;;3.03;;
72569;SDS011;60594;50.204;8.844;2022-07-29T03:09:45;5.85;;;3.92;;
72569;SDS011;60594;50.204;8.844;2022-07-29T03:12:12;6.38;;;4.30;;
72569;SDS011;60594;50.204;8.844;2022-07-29T03:14:40;7.80;;;3.40;;
72569;SDS011;60594;50.204;8.844;2022-07-29T03:17:08;8.57;;;3.58;;
72569;SDS011;60594;50.204;8.844;2022-07-29T03:19:35;5.85;;;3.10;;
72569;SDS011;60594;50.204;8.844;2022-07-29T03:22:02;6.80;;;3.40;;
72569;SDS011;60594;50.204;8.844;2022-07-29T03:24:33;5.57;;;2.97;;
72569;SDS011;60594;50.204;8.844;2022-07-29T03:27:01;8.13;;;3.53;;
72569;SDS011;60594;50.204;8.844;2022-07-29T03:29:28;6.35;;;3.03;;
72569;SDS011;60594;50.204;8.844;2022-07-29T03:31:55;7.45;;;3.05;;
72569;SDS011;60594;50.204;8.844;2022-07-29T03:34:22;6.40;;;3.20;;
72569;SDS011;60594;50.204;8.844;2022-07-29T03:36:48;5.47;;;3.20;;
72569;SDS011;60594;50.204;8.844;2022-07-29T03:39:17;7.43;;;3.45;;
72569;SDS011;60594;50.204;8.844;2022-07-29T03:41:52;6.05;;;3.05;;
72569;SDS011;60594;50.204;8.844;2022-07-29T03:44:21;5.45;;;3.10;;
72569;SDS011;60594;50.204;8.844;2022-07-29T03:46:48;8.05;;;3.47;;
72569;SDS011;60594;50.204;8.844;2022-07-29T03:49:16;7.90;;;3.30;;
72569;SDS011;60594;50.204;8.844;2022-07-29T03:51:46;7.40;;;3.47;;
72569;SDS011;60594;50.204;8.844;2022-07-29T03:54:12;6.95;;;3.25;;
72569;SDS011;60594;50.204;8.844;2022-07-29T03:56:39;6.70;;;3.67;;
72569;SDS011;60594;50.204;8.844;2022-07-29T03:59:08;7.30;;;3.90;;
72569;SDS011;60594;50.204;8.844;2022-07-29T04:01:36;4.88;;;3.20;;
72569;SDS011;60594;50.204;8.844;2022-07-29T04:04:04;5.47;;;2.88;;
72569;SDS011;60594;50.204;8.844;2022-07-29T04:06:41;6.25;;;3.00;;
72569;SDS011;60594;50.204;8.844;2022-07-29T04:09:09;5.55;;;4.30;;
72569;SDS011;60594;50.204;8.844;2022-07-29T04:11:38;5.10;;;3.25;;
72569;SDS011;60594;50.204;8.844;2022-07-29T04:14:05;6.00;;;4.05;;
72569;SDS011;60594;50.204;8.844;2022-07-29T04:16:31;5.20;;;3.75;;
72569;SDS011;60594;50.204;8.844;2022-07-29T04:18:58;5.63;;;3.17;;
72569;SDS011;60594;50.204;8.844;2022-07-29T04:21:25;5.53;;;3.35;;
72569;SDS011;60594;50.204;8.844;2022-07-29T04:23:51;5.13;;;2.80;;
72569;SDS011;60594;50.204;8.844;2022-07-29T04:26:18;7.15;;;3.50;;
72569;SDS011;60594;50.204;8.844;2022-07-29T04:28:45;6.57;;;3.88;;
72569;SDS011;60594;50.204;8.844;2022-07-29T04:31:12;6.47;;;3.88;;
72569;SDS011;60594;50.204;8.844;2022-07-29T04:33:39;6.65;;;3.47;;
72569;SDS011;60594;50.204;8.844;2022-07-29T04:36:06;6.40;;;3.30;;
72569;SDS011;60594;50.204;8.844;2022-07-29T04:38:33;6.13;;;2.80;;
72569;SDS011;60594;50.204;8.844;2022-07-29T04:40:59;6.93;;;3.90;;
72569;SDS011;60594;50.204;8.844;2022-07-29T04:43:26;5.07;;;2.78;;
72569;SDS011;60594;50.204;8.844;2022-07-29T04:45:52;6.82;;;2.90;;
72569;SDS011;60594;50.204;8.844;2022-07-29T04:48:19;6.65;;;3.00;;
72569;SDS011;60594;50.204;8.844;2022-07-29T04:50:45;5.40;;;2.92;;
72569;SDS011;60594;50.204;8.844;2022-07-29T04:53:12;5.75;;;3.03;;
72569;SDS011;60594;50.204;8.844;2022-07-29T04:55:38;6.85;;;2.80;;
72569;SDS011;60594;50.204;8.844;2022-07-29T04:58:05;7.18;;;2.65;;
72569;SDS011;60594;50.204;8.844;2022-07-29T05:00:31;6.10;;;2.55;;
72569;SDS011;60594;50.204;8.844;2022-07-29T05:02:58;5.13;;;2.30;;
72569;SDS011;60594;50.204;8.844;2022-07-29T05:05:24;7.60;;;2.80;;
72569;SDS011;60594;50.204;8.844;2022-07-29T05:07:52;5.78;;;2.40;;
72569;SDS011;60594;50.204;8.844;2022-07-29T05:10:18;5.00;;;2.42;;
72569;SDS011;60594;50.204;8.844;2022-07-29T05:12:45;6.90;;;2.67;;
72569;SDS011;60594;50.204;8.844;2022-07-29T05:15:11;5.00;;;2.40;;
72569;SDS011;60594;50.204;8.844;2022-07-29T05:17:37;4.60;;;2.72;;
72569;SDS011;60594;50.204;8.844;2022-07-29T05:20:05;5.40;;;2.42;;
72569;SDS011;60594;50.204;8.844;2022-07-29T05:22:33;7.93;;;2.67;;
72569;SDS011;60594;50.204;8.844;2022-07-29T05:25:00;5.30;;;2.80;;
72569;SDS011;60594;50.204;8.844;2022-07-29T05:27:26;5.35;;;2.63;;
72569;SDS011;60594;50.204;8.844;2022-07-29T05:29:52;4.88;;;2.47;;
72569;SDS011;60594;50.204;8.844;2022-07-29T05:32:19;5.22;;;3.00;;
72569;SDS011;60594;50.204;8.844;2022-07-29T05:34:46;8.00;;;3.50;;
72569;SDS011;60594;50.204;8.844;2022-07-29T05:37:12;5.10;;;2.65;;
72569;SDS011;60594;50.204;8.844;2022-07-29T05:39:39;4.90;;;2.67;;
72569;SDS011;60594;50.204;8.844;2022-07-29T05:42:09;5.97;;;2.50;;
72569;SDS011;60594;50.204;8.844;2022-07-29T05:44:37;5.22;;;2.83;;
72569;SDS011;60594;50.204;8.844;2022-07-29T05:47:04;4.32;;;2.38;;
72569;SDS011;60594;50.204;8.844;2022-07-29T05:49:30;4.97;;;2.60;;
72569;SDS011;60594;50.204;8.844;2022-07-29T05:51:58;5.10;;;2.90;;
72569;SDS011;60594;50.204;8.844;2022-07-29T05:54:25;5.78;;;2.92;;
72569;SDS011;60594;50.204;8.844;2022-07-29T05:56:51;5.80;;;3.05;;
72569;SDS011;60594;50.204;8.844;2022-07-29T05:59:18;5.80;;;3.30;;
72569;SDS011;60594;50.204;8.844;2022-07-29T06:01:45;8.45;;;3.03;;
72569;SDS011;60594;50.204;8.844;2022-07-29T06:04:11;7.90;;;3.13;;
72569;SDS011;60594;50.204;8.844;2022-07-29T06:06:37;6.38;;;3.10;;
72569;SDS011;60594;50.204;8.844;2022-07-29T06:09:04;6.95;;;3.33;;
72569;SDS011;60594;50.204;8.844;2022-07-29T06:11:30;6.00;;;2.72;;
72569;SDS011;60594;50.204;8.844;2022-07-29T06:13:56;5.35;;;2.90;;
72569;SDS011;60594;50.204;8.844;2022-07-29T06:16:23;6.43;;;2.85;;
72569;SDS011;60594;50.204;8.844;2022-07-29T06:18:50;4.45;;;2.65;;
72569;SDS011;60594;50.204;8.844;2022-07-29T06:21:16;5.72;;;2.90;;
72569;SDS011;60594;50.204;8.844;2022-07-29T06:23:43;5.85;;;2.58;;
72569;SDS011;60594;50.204;8.844;2022-07-29T06:26:11;4.85;;;2.40;;
72569;SDS011;60594;50.204;8.844;2022-07-29T06:28:37;5.13;;;2.60;;
72569;SDS011;60594;50.204;8.844;2022-07-29T06:31:05;5.68;;;2.97;;
72569;SDS011;60594;50.204;8.844;2022-07-29T06:33:31;5.65;;;2.80;;
72569;SDS011;60594;50.204;8.844;2022-07-29T06:35:58;5.32;;;2.80;;
72569;SDS011;60594;50.204;8.844;2022-07-29T06:38:24;5.97;;;3.00;;
72569;SDS011;60594;50.204;8.844;2022-07-29T06:40:51;5.28;;;3.15;;
72569;SDS011;60594;50.204;8.844;2022-07-29T06:43:27;6.13;;;3.00;;
72569;SDS011;60594;50.204;8.844;2022-07-29T06:45:54;6.97;;;3.35;;
72569;SDS011;60594;50.204;8.844;2022-07-29T06:48:21;5.65;;;2.75;;
72569;SDS011;60594;50.204;8.844;2022-07-29T06:50:48;6.10;;;2.90;;
72569;SDS011;60594;50.204;8.844;2022-07-29T06:53:14;5.22;;;2.95;;
72569;SDS011;60594;50.204;8.844;2022-07-29T06:55:43;6.38;;;2.90;;
72569;SDS011;60594;50.204;8.844;2022-07-29T06:58:10;6.38;;;2.92;;
72569;SDS011;60594;50.204;8.844;2022-07-29T07:00:37;5.30;;;3.20;;
72569;SDS011;60594;50.204;8.844;2022-07-29T07:03:04;6.47;;;2.70;;
72569;SDS011;60594;50.204;8.844;2022-07-29T07:05:30;5.82;;;2.72;;
72569;SDS011;60594;50.204;8.844;2022-07-29T07:07:58;7.03;;;2.70;;
72569;SDS011;60594;50.204;8.844;2022-07-29T07:10:24;4.70;;;2.40;;
72569;SDS011;60594;50.204;8.844;2022-07-29T07:12:51;6.57;;;2.60;;
72569;SDS011;60594;50.204;8.844;2022-07-29T07:15:17;6.97;;;2.80;;
72569;SDS011;60594;50.204;8.844;2022-07-29T07:17:48;6.28;;;2.47;;
72569;SDS011;60594;50.204;8.844;2022-07-29T07:20:18;4.35;;;2.58;;
72569;SDS011;60594;50.204;8.844;2022-07-29T07:22:44;4.70;;;2.55;;
72569;SDS011;60594;50.204;8.844;2022-07-29T07:25:11;6.47;;;2.80;;
72569;SDS011;60594;50.204;8.844;2022-07-29T07:27:39;6.15;;;3.20;;
72569;SDS011;60594;50.204;8.844;2022-07-29T07:30:05;5.85;;;2.72;;
72569;SDS011;60594;50.204;8.844;2022-07-29T07:32:33;5.35;;;2.40;;
72569;SDS011;60594;50.204;8.844;2022-07-29T07:35:00;8.40;;;2.63;;
72569;SDS011;60594;50.204;8.844;2022-07-29T07:37:26;7.75;;;3.13;;
72569;SDS011;60594;50.204;8.844;2022-07-29T07:39:53;6.68;;;2.70;;
72569;SDS011;60594;50.204;8.844;2022-07-29T07:42:20;6.18;;;2.30;;
72569;SDS011;60594;50.204;8.844;2022-07-29T07:44:46;7.00;;;2.90;;
72569;SDS011;60594;50.204;8.844;2022-07-29T07:47:17;5.40;;;2.20;;
72569;SDS011;60594;50.204;8.844;2022-07-29T07:49:46;5.13;;;2.50;;
72569;SDS011;60594;50.204;8.844;2022-07-29T07:52:13;5.60;;;2.47;;
72569;SDS011;60594;50.204;8.844;2022-07-29T07:54:41;5.25;;;2.63;;
72569;SDS011;60594;50.204;8.844;2022-07-29T07:57:09;5.07;;;2.40;;
72569;SDS011;60594;50.204;8.844;2022-07-29T07:59:36;6.13;;;2.75;;
72569;SDS011;60594;50.204;8.844;2022-07-29T08:02:03;5.30;;;2.47;;
72569;SDS011;60594;50.204;8.844;2022-07-29T08:04:30;5.60;;;2.60;;
72569;SDS011;60594;50.204;8.844;2022-07-29T08:06:57;6.68;;;2.70;;
72569;SDS011;60594;50.204;8.844;2022-07-29T08:09:25;5.97;;;3.15;;
72569;SDS011;60594;50.204;8.844;2022-07-29T08:11:53;6.00;;;2.55;;
72569;SDS011;60594;50.204;8.844;2022-07-29T08:14:20;4.72;;;2.47;;
72569;SDS011;60594;50.204;8.844;2022-07-29T08:16:47;6.63;;;2.15;;
72569;SDS011;60594;50.204;8.844;2022-07-29T08:19:13;5.05;;;2.50;;
72569;SDS011;60594;50.204;8.844;2022-07-29T08:21:40;7.53;;;3.00;;
72569;SDS011;60594;50.204;8.844;2022-07-29T08:24:07;6.93;;;2.80;;
72569;SDS011;60594;50.204;8.844;2022-07-29T08:26:52;7.85;;;2.55;;
72569;SDS011;60594;50.204;8.844;2022-07-29T08:29:18;6.10;;;2.40;;
72569;SDS011;60594;50.204;8.844;2022-07-29T08:31:45;5.13;;;2.63;;
72569;SDS011;60594;50.204;8.844;2022-07-29T08:34:11;5.80;;;3.03;;
72569;SDS011;60594;50.204;8.844;2022-07-29T08:36:38;5.72;;;2.20;;
72569;SDS011;60594;50.204;8.844;2022-07-29T08:39:04;5.13;;;2.50;;
72569;SDS011;60594;50.204;8.844;2022-07-29T08:41:31;4.43;;;2.15;;
72569;SDS011;60594;50.204;8.844;2022-07-29T08:43:58;9.38;;;2.45;;
72569;SDS011;60594;50.204;8.844;2022-07-29T08:46:24;5.50;;;2.55;;
72569;SDS011;60594;50.204;8.844;2022-07-29T08:48:51;5.22;;;2.72;;
72569;SDS011;60594;50.204;8.844;2022-07-29T08:51:18;4.72;;;2.38;;
72569;SDS011;60594;50.204;8.844;2022-07-29T08:53:47;8.38;;;2.63;;
72569;SDS011;60594;50.204;8.844;2022-07-29T08:56:16;5.97;;;2.42;;
72569;SDS011;60594;50.204;8.844;2022-07-29T08:58:44;4.88;;;2.05;;
72569;SDS011;60594;50.204;8.844;2022-07-29T09:01:13;7.60;;;2.65;;
72569;SDS011;60594;50.204;8.844;2022-07-29T09:03:43;5.97;;;2.83;;
72569;SDS011;60594;50.204;8.844;2022-07-29T09:06:17;4.30;;;2.28;;
72569;SDS011;60594;50.204;8.844;2022-07-29T09:08:44;5.22;;;2.50;;
72569;SDS011;60594;50.204;8.844;2022-07-29T09:11:12;5.18;;;2.40;;
72569;SDS011;60594;50.204;8.844;2022-07-29T09:13:39;6.13;;;2.78;;
72569;SDS011;60594;50.204;8.844;2022-07-29T09:16:08;4.57;;;2.38;;
72569;SDS011;60594;50.204;8.844;2022-07-29T09:18:37;5.22;;;2.58;;
72569;SDS011;60594;50.204;8.844;2022-07-29T09:21:04;4.75;;;2.30;;
72569;SDS011;60594;50.204;8.844;2022-07-29T09:26:38;4.45;;;2.42;;
72569;SDS011;60594;50.204;8.844;2022-07-29T09:29:16;6.05;;;2.65;;
72569;SDS011;60594;50.204;8.844;2022-07-29T09:31:45;6.43;;;2.50;;
72569;SDS011;60594;50.204;8.844;2022-07-29T09:34:24;5.72;;;3.40;;
72569;SDS011;60594;50.204;8.844;2022-07-29T09:36:54;6.63;;;3.20;;
72569;SDS011;60594;50.204;8.844;2022-07-29T09:39:31;4.57;;;2.53;;
72569;SDS011;60594;50.204;8.844;2022-07-29T09:42:05;6.38;;;2.42;;
72569;SDS011;60594;50.204;8.844;2022-07-29T09:44:45;5.15;;;2.55;;
72569;SDS011;60594;50.204;8.844;2022-07-29T09:47:17;8.32;;;2.75;;
72569;SDS011;60594;50.204;8.844;2022-07-29T09:52:20;5.72;;;2.60;;
72569;SDS011;60594;50.204;8.844;2022-07-29T09:54:49;5.40;;;2.72;;
72569;SDS011;60594;50.204;8.844;2022-07-29T09:57:28;5.78;;;2.45;;
72569;SDS011;60594;50.204;8.844;2022-07-29T09:59:55;5.45;;;2.67;;
72569;SDS011;60594;50.204;8.844;2022-07-29T10:02:39;4.10;;;2.55;;
72569;SDS011;60594;50.204;8.844;2022-07-29T10:07:51;6.57;;;2.65;;
72569;SDS011;60594;50.204;8.844;2022-07-29T10:15:31;6.25;;;2.80;;
72569;SDS011;60594;50.204;8.844;2022-07-29T10:17:59;6.07;;;2.65;;
72569;SDS011;60594;50.204;8.844;2022-07-29T10:20:27;4.95;;;2.55;;
72569;SDS011;60594;50.204;8.844;2022-07-29T10:22:54;7.53;;;2.70;;
72569;SDS011;60594;50.204;8.844;2022-07-29T10:27:50;4.93;;;2.63;;
72569;SDS011;60594;50.204;8.844;2022-07-29T10:30:18;4.38;;;2.40;;
72569;SDS011;60594;50.204;8.844;2022-07-29T10:32:49;4.68;;;2.53;;
72569;SDS011;60594;50.204;8.844;2022-07-29T10:35:30;4.75;;;2.78;;
72569;SDS011;60594;50.204;8.844;2022-07-29T10:46:27;5.75;;;2.88;;
72569;SDS011;60594;50.204;8.844;2022-07-29T10:49:07;5.57;;;3.05;;
72569;SDS011;60594;50.204;8.844;2022-07-29T10:51:50;6.38;;;2.88;;
72569;SDS011;60594;50.204;8.844;2022-07-29T10:54:19;5.28;;;2.83;;
72569;SDS011;60594;50.204;8.844;2022-07-29T10:57:20;5.00;;;3.60;;
72569;SDS011;60594;50.204;8.844;2022-07-29T11:05:01;4.93;;;2.50;;
72569;SDS011;60594;50.204;8.844;2022-07-29T11:07:32;5.55;;;2.88;;
72569;SDS011;60594;50.204;8.844;2022-07-29T11:15:10;6.78;;;2.80;;
72569;SDS011;60594;50.204;8.844;2022-07-29T11:26:16;4.47;;;2.60;;
72569;SDS011;60594;50.204;8.844;2022-07-29T11:39:47;5.63;;;2.80;;
72569;SDS011;60594;50.204;8.844;2022-07-29T11:45:14;6.53;;;2.95;;
72569;SDS011;60594;50.204;8.844;2022-07-29T11:50:29;5.82;;;3.13;;
72569;SDS011;60594;50.204;8.844;2022-07-29T11:53:01;5.15;;;2.72;;
72569;SDS011;60594;50.204;8.844;2022-07-29T11:55:30;8.90;;;3.17;;
72569;SDS011;60594;50.204;8.844;2022-07-29T11:57:59;4.75;;;2.80;;
72569;SDS011;60594;50.204;8.844;2022-07-29T12:00:32;6.63;;;2.90;;
72569;SDS011;60594;50.204;8.844;2022-07-29T12:03:01;9.15;;;3.08;;
72569;SDS011;60594;50.204;8.844;2022-07-29T12:05:32;7.07;;;2.92;;
72569;SDS011;60594;50.204;8.844;2022-07-29T12:10:34;5.63;;;3.03;;
72569;SDS011;60594;50.204;8.844;2022-07-29T12:13:01;6.50;;;3.40;;
72569;SDS011;60594;50.204;8.844;2022-07-29T12:15:28;5.30;;;2.80;;
72569;SDS011;60594;50.204;8.844;2022-07-29T12:17:56;5.70;;;2.80;;
72569;SDS011;60594;50.204;8.844;2022-07-29T12:20:23;5.57;;;3.58;;
72569;SDS011;60594;50.204;8.844;2022-07-29T12:22:54;6.78;;;3.03;;
72569;SDS011;60594;50.204;8.844;2022-07-29T12:25:23;4.97;;;2.92;;
72569;SDS011;60594;50.204;8.844;2022-07-29T12:27:59;5.80;;;2.90;;
72569;SDS011;60594;50.204;8.844;2022-07-29T12:35:28;4.60;;;3.00;;
72569;SDS011;60594;50.204;8.844;2022-07-29T12:37:54;4.40;;;2.83;;
72569;SDS011;60594;50.204;8.844;2022-07-29T12:40:21;5.32;;;2.95;;
72569;SDS011;60594;50.204;8.844;2022-07-29T12:45:56;6.68;;;3.22;;
72569;SDS011;60594;50.204;8.844;2022-07-29T12:48:33;4.95;;;3.00;;
72569;SDS011;60594;50.204;8.844;2022-07-29T12:51:02;6.22;;;2.90;;
72569;SDS011;60594;50.204;8.844;2022-07-29T12:53:31;5.22;;;3.15;;
72569;SDS011;60594;50.204;8.844;2022-07-29T12:55:58;4.88;;;2.90;;
72569;SDS011;60594;50.204;8.844;2022-07-29T12:58:39;5.50;;;3.13;;
72569;SDS011;60594;50.204;8.844;2022-07-29T13:01:11;5.60;;;3.05;;
72569;SDS011;60594;50.204;8.844;2022-07-29T13:08:59;5.88;;;3.17;;
72569;SDS011;60594;50.204;8.844;2022-07-29T13:11:44;6.10;;;3.40;;
72569;SDS011;60594;50.204;8.844;2022-07-29T13:14:13;5.93;;;3.30;;
72569;SDS011;60594;50.204;8.844;2022-07-29T13:17:08;5.13;;;2.97;;
72569;SDS011;60594;50.204;8.844;2022-07-29T13:22:12;5.40;;;3.20;;
72569;SDS011;60594;50.204;8.844;2022-07-29T13:24:48;5.70;;;3.22;;
72569;SDS011;60594;50.204;8.844;2022-07-29T13:27:17;6.15;;;3.90;;
72569;SDS011;60594;50.204;8.844;2022-07-29T13:29:49;5.95;;;3.30;;
72569;SDS011;60594;50.204;8.844;2022-07-29T13:32:19;5.43;;;3.20;;
72569;SDS011;60594;50.204;8.844;2022-07-29T13:34:46;6.45;;;3.10;;
72569;SDS011;60594;50.204;8.844;2022-07-29T13:37:13;7.32;;;3.13;;
72569;SDS011;60594;50.204;8.844;2022-07-29T13:39:40;5.15;;;3.40;;
72569;SDS011;60594;50.204;8.844;2022-07-29T13:42:06;5.78;;;3.17;;
72569;SDS011;60594;50.204;8.844;2022-07-29T13:44:35;4.68;;;3.25;;
72569;SDS011;60594;50.204;8.844;2022-07-29T13:47:07;6.43;;;3.00;;
72569;SDS011;60594;50.204;8.844;2022-07-29T13:49:34;6.90;;;3.17;;
72569;SDS011;60594;50.204;8.844;2022-07-29T13:52:01;7.05;;;3.40;;
72569;SDS011;60594;50.204;8.844;2022-07-29T13:54:28;5.50;;;3.15;;
72569;SDS011;60594;50.204;8.844;2022-07-29T13:56:55;5.90;;;3.60;;
72569;SDS011;60594;50.204;8.844;2022-07-29T13:59:21;4.45;;;2.95;;
72569;SDS011;60594;50.204;8.844;2022-07-29T14:01:49;6.28;;;3.17;;
72569;SDS011;60594;50.204;8.844;2022-07-29T14:04:15;5.32;;;3.20;;
72569;SDS011;60594;50.204;8.844;2022-07-29T14:06:42;5.25;;;3.20;;
72569;SDS011;60594;50.204;8.844;2022-07-29T14:09:09;5.03;;;3.25;;
72569;SDS011;60594;50.204;8.844;2022-07-29T14:11:38;7.07;;;3.08;;
72569;SDS011;60594;50.204;8.844;2022-07-29T14:14:05;6.70;;;3.20;;
72569;SDS011;60594;50.204;8.844;2022-07-29T14:16:35;5.00;;;3.20;;
72569;SDS011;60594;50.204;8.844;2022-07-29T14:19:02;6.20;;;3.47;;
72569;SDS011;60594;50.204;8.844;2022-07-29T14:21:29;5.80;;;3.53;;
72569;SDS011;60594;50.204;8.844;2022-07-29T14:23:58;5.65;;;3.00;;
72569;SDS011;60594;50.204;8.844;2022-07-29T14:26:24;5.05;;;3.33;;
72569;SDS011;60594;50.204;8.844;2022-07-29T14:28:51;7.07;;;2.83;;
72569;SDS011;60594;50.204;8.844;2022-07-29T14:31:17;6.35;;;3.33;;
72569;SDS011;60594;50.204;8.844;2022-07-29T14:33:46;5.18;;;3.08;;
72569;SDS011;60594;50.204;8.844;2022-07-29T14:36:12;5.57;;;3.10;;
72569;SDS011;60594;50.204;8.844;2022-07-29T14:38:41;5.10;;;3.20;;
72569;SDS011;60594;50.204;8.844;2022-07-29T14:41:08;7.13;;;3.00;;
72569;SDS011;60594;50.204;8.844;2022-07-29T14:43:34;6.20;;;3.22;;
72569;SDS011;60594;50.204;8.844;2022-07-29T14:46:01;4.85;;;3.28;;
72569;SDS011;60594;50.204;8.844;2022-07-29T14:48:28;6.15;;;3.22;;
72569;SDS011;60594;50.204;8.844;2022-07-29T14:53:22;5.43;;;3.47;;
72569;SDS011;60594;50.204;8.844;2022-07-29T14:55:49;5.88;;;3.35;;
72569;SDS011;60594;50.204;8.844;2022-07-29T14:58:16;5.82;;;3.20;;
72569;SDS011;60594;50.204;8.844;2022-07-29T15:00:46;10.05;;;3.22;;
72569;SDS011;60594;50.204;8.844;2022-07-29T15:03:13;6.55;;;3.72;;
72569;SDS011;60594;50.204;8.844;2022-07-29T15:05:39;12.07;;;4.13;;
72569;SDS011;60594;50.204;8.844;2022-07-29T15:08:08;6.35;;;3.95;;
72569;SDS011;60594;50.204;8.844;2022-07-29T15:10:35;10.25;;;5.65;;
72569;SDS011;60594;50.204;8.844;2022-07-29T15:13:01;8.57;;;4.43;;
72569;SDS011;60594;50.204;8.844;2022-07-29T15:15:34;8.73;;;5.47;;
72569;SDS011;60594;50.204;8.844;2022-07-29T15:18:01;7.28;;;4.65;;
72569;SDS011;60594;50.204;8.844;2022-07-29T15:20:29;7.72;;;5.15;;
72569;SDS011;60594;50.204;8.844;2022-07-29T15:22:59;8.90;;;5.75;;
72569;SDS011;60594;50.204;8.844;2022-07-29T15:25:25;8.57;;;6.00;;
72569;SDS011;60594;50.204;8.844;2022-07-29T15:30:20;7.80;;;5.90;;
72569;SDS011;60594;50.204;8.844;2022-07-29T15:32:49;9.07;;;6.35;;
72569;SDS011;60594;50.204;8.844;2022-07-29T15:35:16;9.25;;;6.60;;
72569;SDS011;60594;50.204;8.844;2022-07-29T15:37:42;8.52;;;6.55;;
72569;SDS011;60594;50.204;8.844;2022-07-29T15:40:10;8.13;;;6.13;;
72569;SDS011;60594;50.204;8.844;2022-07-29T15:42:37;10.55;;;5.90;;
72569;SDS011;60594;50.204;8.844;2022-07-29T15:45:04;9.48;;;6.80;;
72569;SDS011;60594;50.204;8.844;2022-07-29T15:47:30;9.05;;;7.53;;
72569;SDS011;60594;50.204;8.844;2022-07-29T15:49:57;9.70;;;6.18;;
72569;SDS011;60594;50.204;8.844;2022-07-29T15:52:23;8.10;;;6.22;;
72569;SDS011;60594;50.204;8.844;2022-07-29T15:54:55;9.15;;;5.15;;
72569;SDS011;60594;50.204;8.844;2022-07-29T15:57:23;8.45;;;5.60;;
72569;SDS011;60594;50.204;8.844;2022-07-29T15:59:50;8.00;;;5.70;;
72569;SDS011;60594;50.204;8.844;2022-07-29T16:02:17;6.38;;;4.95;;
72569;SDS011;60594;50.204;8.844;2022-07-29T16:04:44;7.55;;;4.93;;
72569;SDS011;60594;50.204;8.844;2022-07-29T16:07:11;6.97;;;4.68;;
72569;SDS011;60594;50.204;8.844;2022-07-29T16:09:39;7.07;;;4.88;;
72569;SDS011;60594;50.204;8.844;2022-07-29T16:12:05;6.57;;;4.47;;
72569;SDS011;60594;50.204;8.844;2022-07-29T16:14:34;7.40;;;4.82;;
72569;SDS011;60594;50.204;8.844;2022-07-29T16:17:01;9.32;;;5.40;;
72569;SDS011;60594;50.204;8.844;2022-07-29T16:19:31;8.85;;;5.20;;
72569;SDS011;60594;50.204;8.844;2022-07-29T16:21:58;8.23;;;6.45;;
72569;SDS011;60594;50.204;8.844;2022-07-29T16:24:24;7.45;;;5.30;;
72569;SDS011;60594;50.204;8.844;2022-07-29T16:26:54;7.88;;;4.72;;
72569;SDS011;60594;50.204;8.844;2022-07-29T16:29:21;7.25;;;5.20;;
72569;SDS011;60594;50.204;8.844;2022-07-29T16:31:50;8.38;;;5.53;;
72569;SDS011;60594;50.204;8.844;2022-07-29T16:34:18;8.82;;;6.25;;